Time;durP1;ratioP1;P1;durP2;ratioP2;P2;SDS_P1;SDS_P2;PMS_P1;PMS_P2;Temp;Humidity;BMP_temperature;BMP_pressure;BME280_temperature;BME280_humidity;BME280_pressure;Samples;Min_cycle;Max_cycle;Signal;HPM_P1;HPM_P2
2023/07/09 00:01:18;;;;;;;12.07;7.22;;;;;;;24.10;67.74;101421.66;3530013;40;20474;-61
2023/07/09 00:03:51;;;;;;;10.00;6.65;;;;;;;24.15;67.11;101427.53;3533047;40;20125;-63
2023/07/09 00:06:18;;;;;;;8.77;6.80;;;;;;;24.12;68.03;101430.63;3534736;40;20071;-62
2023/07/09 00:08:47;;;;;;;9.82;6.80;;;;;;;24.03;68.39;101426.13;3530703;40;20057;-61
2023/07/09 00:11:15;;;;;;;12.10;7.38;;;;;;;23.97;69.34;101435.88;3531008;40;20056;-62
2023/07/09 00:13:41;;;;;;;11.27;6.90;;;;;;;23.92;69.55;101432.81;3535602;40;20062;-62
2023/07/09 00:16:24;;;;;;;9.68;6.75;;;;;;;23.45;70.25;101375.66;3535589;40;20411;-62
2023/07/09 00:18:50;;;;;;;9.52;7.07;;;;;;;23.86;69.55;101436.22;3532470;40;20070;-62
2023/07/09 00:21:21;;;;;;;9.60;6.47;;;;;;;23.84;69.43;101446.50;3533374;40;20061;-62
2023/07/09 00:23:48;;;;;;;9.18;6.70;;;;;;;23.82;69.92;101443.94;3532392;40;20500;-62
2023/07/09 00:26:17;;;;;;;8.50;6.60;;;;;;;23.79;69.83;101448.91;3531662;40;20050;-62
2023/07/09 00:28:43;;;;;;;9.65;6.88;;;;;;;23.74;70.96;101449.38;3532885;40;20282;-62
2023/07/09 00:31:15;;;;;;;9.55;6.78;;;;;;;23.62;70.82;101439.69;3530195;40;20460;-62
2023/07/09 00:33:43;;;;;;;8.93;6.50;;;;;;;23.69;70.15;101437.16;3533543;40;20100;-63
2023/07/09 00:36:24;;;;;;;8.45;7.07;;;;;;;23.66;70.06;101446.59;3535575;40;20058;-63
2023/07/09 00:38:51;;;;;;;9.35;6.55;;;;;;;23.62;69.89;101458.91;3530776;40;20073;-62
2023/07/09 00:41:23;;;;;;;10.32;6.85;;;;;;;23.59;70.78;101453.75;3531980;40;20101;-63
2023/07/09 00:43:51;;;;;;;8.10;6.38;;;;;;;23.55;70.74;101452.34;3535243;40;20404;-62
2023/07/09 00:46:20;;;;;;;9.95;6.60;;;;;;;23.51;70.62;101453.72;3533453;40;20484;-63
2023/07/09 00:48:53;;;;;;;9.18;7.13;;;;;;;23.46;70.72;101454.19;3536272;40;20124;-63
2023/07/09 00:51:22;;;;;;;12.77;7.10;;;;;;;23.48;70.73;101457.66;3535602;40;20133;-62
2023/07/09 00:53:58;;;;;;;9.50;7.15;;;;;;;23.49;71.05;101458.50;3532916;40;20078;-63
2023/07/09 00:56:42;;;;;;;11.02;7.03;;;;;;;23.48;71.27;101462.28;3534996;40;20064;-63
2023/07/09 00:59:15;;;;;;;8.45;6.10;;;;;;;23.50;72.30;101460.22;3532674;40;20054;-62
2023/07/09 01:01:41;;;;;;;9.52;6.70;;;;;;;22.98;72.32;101378.00;3532582;40;20057;-62
2023/07/09 01:04:10;;;;;;;9.75;6.40;;;;;;;23.50;72.61;101454.72;3538887;40;20097;-62
2023/07/09 01:06:47;;;;;;;8.73;7.05;;;;;;;22.98;73.18;101375.25;3534465;40;20068;-62
2023/07/09 01:09:13;;;;;;;9.48;6.55;;;;;;;23.42;74.09;101447.31;3534263;40;20069;-62
2023/07/09 01:11:39;;;;;;;9.82;6.95;;;;;;;23.44;73.28;101448.03;3533042;40;20058;-62
2023/07/09 01:14:10;;;;;;;9.05;7.05;;;;;;;23.43;73.54;101451.78;3532528;40;20051;-62
2023/07/09 01:16:56;;;;;;;8.55;6.68;;;;;;;23.43;73.28;101451.78;3531865;40;20237;-62
2023/07/09 01:19:25;;;;;;;10.35;7.10;;;;;;;23.40;73.55;101444.72;3531307;40;20059;-63
2023/07/09 01:21:58;;;;;;;11.70;7.20;;;;;;;23.37;73.94;101445.09;3533769;40;20062;-63
2023/07/09 01:25:03;;;;;;;11.10;7.05;;;;;;;23.35;74.78;101441.63;3536622;40;20136;-63
2023/07/09 01:27:43;;;;;;;9.27;7.07;;;;;;;23.35;74.94;101446.25;3533454;40;20056;-63
2023/07/09 01:30:16;;;;;;;8.05;6.88;;;;;;;23.35;74.77;101449.88;3533503;40;20406;-63
2023/07/09 01:32:45;;;;;;;9.80;6.63;;;;;;;23.35;74.43;101449.00;3533862;40;20058;-63
2023/07/09 01:35:14;;;;;;;9.02;6.65;;;;;;;23.34;74.49;101456.38;3534423;40;20065;-63
2023/07/09 01:37:42;;;;;;;10.75;7.20;;;;;;;23.34;74.03;101452.75;3532522;40;20377;-63
2023/07/09 01:40:12;;;;;;;12.38;7.45;;;;;;;23.33;73.64;101454.66;3534204;40;20050;-63
2023/07/09 01:42:38;;;;;;;10.02;7.05;;;;;;;23.31;73.92;101458.56;3536056;40;20049;-63
2023/07/09 01:45:07;;;;;;;9.48;7.53;;;;;;;23.22;72.90;101446.72;3533733;40;20094;-63
2023/07/09 01:47:32;;;;;;;12.95;8.00;;;;;;;23.29;73.05;101463.38;3533586;40;20066;-63
2023/07/09 01:49:59;;;;;;;9.20;7.57;;;;;;;23.28;72.79;101458.88;3535013;40;20051;-63
2023/07/09 01:52:31;;;;;;;10.18;7.45;;;;;;;23.18;73.62;101453.53;3535268;40;20073;-63
2023/07/09 01:54:57;;;;;;;10.32;7.82;;;;;;;23.13;74.61;101461.41;3531136;40;20073;-63
2023/07/09 01:57:34;;;;;;;10.45;7.68;;;;;;;23.17;74.77;101468.25;3525372;40;20057;-63
2023/07/09 02:00:14;;;;;;;8.77;7.15;;;;;;;23.10;74.76;101467.19;3531874;40;20128;-63
2023/07/09 02:02:46;;;;;;;9.30;7.07;;;;;;;23.13;74.36;101470.47;3531021;40;20054;-63
2023/07/09 02:05:16;;;;;;;11.80;7.55;;;;;;;22.95;74.88;101447.72;3535735;40;20449;-63
2023/07/09 02:07:42;;;;;;;10.13;7.50;;;;;;;22.87;74.19;101432.06;3535530;40;20049;-63
2023/07/09 02:10:08;;;;;;;11.60;7.65;;;;;;;23.09;74.12;101468.19;3534841;40;20425;-63
2023/07/09 02:12:34;;;;;;;11.80;7.55;;;;;;;23.10;74.78;101469.94;3533242;40;20058;-63
2023/07/09 02:15:00;;;;;;;11.30;8.10;;;;;;;23.07;74.71;101470.25;3535350;40;20053;-63
2023/07/09 02:17:26;;;;;;;10.65;8.05;;;;;;;23.06;74.72;101477.63;3533855;40;20068;-63
2023/07/09 02:19:51;;;;;;;11.73;7.43;;;;;;;22.60;74.62;101399.28;3531839;40;20070;-63
2023/07/09 02:22:19;;;;;;;10.25;7.32;;;;;;;23.04;74.74;101471.44;3531087;40;20335;-63
2023/07/09 02:24:45;;;;;;;9.80;7.90;;;;;;;23.02;74.46;101472.63;3536517;40;20636;-63
2023/07/09 02:27:17;;;;;;;10.27;7.50;;;;;;;22.99;74.46;101465.56;3536288;40;20401;-63
2023/07/09 02:29:43;;;;;;;10.90;7.70;;;;;;;23.00;75.22;101471.94;3534398;40;20132;-63
2023/07/09 02:32:19;;;;;;;10.27;7.38;;;;;;;22.96;74.69;101468.63;3533558;40;20066;-63
2023/07/09 02:34:48;;;;;;;8.73;7.82;;;;;;;22.96;74.25;101478.72;3533410;40;20512;-63
2023/07/09 02:37:16;;;;;;;11.35;8.40;;;;;;;22.92;74.49;101465.31;3531319;40;20068;-63
2023/07/09 02:39:43;;;;;;;11.10;8.25;;;;;;;22.89;74.64;101467.50;3530639;40;20313;-63
2023/07/09 02:42:15;;;;;;;12.90;8.77;;;;;;;22.86;75.07;101470.56;3535146;40;20054;-63
2023/07/09 02:44:43;;;;;;;10.48;8.00;;;;;;;22.82;75.60;101467.28;3531672;40;20137;-63
2023/07/09 02:47:10;;;;;;;10.70;8.20;;;;;;;22.82;75.61;101472.78;3532361;40;20058;-63
2023/07/09 02:49:37;;;;;;;9.05;7.72;;;;;;;22.78;76.27;101471.38;3522819;40;20317;-63
2023/07/09 02:52:04;;;;;;;11.68;8.52;;;;;;;22.62;76.70;101439.22;3535132;40;20397;-63
2023/07/09 02:54:30;;;;;;;9.07;8.18;;;;;;;22.79;76.48;101478.56;3531651;40;20125;-63
2023/07/09 02:56:55;;;;;;;12.27;8.50;;;;;;;22.77;76.68;101469.66;3536166;40;20089;-63
2023/07/09 02:59:21;;;;;;;11.05;8.18;;;;;;;22.74;76.99;101475.47;3534886;40;20058;-63
2023/07/09 03:01:48;;;;;;;9.52;8.18;;;;;;;22.75;76.95;101470.84;3531180;40;20066;-63
2023/07/09 03:04:14;;;;;;;10.23;8.82;;;;;;;22.73;76.92;101470.13;3533331;40;20459;-63
2023/07/09 03:06:40;;;;;;;11.07;8.95;;;;;;;22.69;76.83;101470.44;3534439;40;20062;-63
2023/07/09 03:09:07;;;;;;;11.52;9.32;;;;;;;22.69;76.71;101466.84;3533717;40;20113;-62
2023/07/09 03:11:35;;;;;;;10.73;8.63;;;;;;;22.65;77.40;101469.06;3530579;40;20064;-62
2023/07/09 03:14:02;;;;;;;11.52;8.73;;;;;;;22.65;77.04;101470.94;3529143;40;20054;-61
2023/07/09 03:16:32;;;;;;;10.95;8.90;;;;;;;22.64;77.61;101470.03;3530507;40;20062;-61
2023/07/09 03:18:58;;;;;;;10.65;8.88;;;;;;;22.65;78.10;101470.94;3530767;40;20061;-62
2023/07/09 03:21:27;;;;;;;12.73;9.60;;;;;;;22.64;78.03;101472.78;3528998;40;20305;-61
2023/07/09 03:23:54;;;;;;;12.98;9.15;;;;;;;22.60;78.03;101462.31;3531595;40;20054;-62
2023/07/09 03:26:20;;;;;;;10.38;9.18;;;;;;;22.63;78.26;101470.22;3530744;40;20066;-62
2023/07/09 03:28:46;;;;;;;11.88;8.73;;;;;;;22.64;78.05;101469.19;3529517;40;20128;-62
2023/07/09 03:31:12;;;;;;;11.32;9.35;;;;;;;22.64;77.73;101475.53;3530309;40;20109;-62
2023/07/09 03:33:37;;;;;;;12.30;9.25;;;;;;;22.54;77.21;101454.72;3531695;40;20503;-61
2023/07/09 03:36:05;;;;;;;10.30;9.18;;;;;;;22.62;77.72;101472.09;3530147;40;20062;-61
2023/07/09 03:38:31;;;;;;;13.38;9.10;;;;;;;22.58;78.00;101469.81;3531110;40;20053;-62
2023/07/09 03:40:58;;;;;;;12.35;9.55;;;;;;;22.56;77.89;101461.78;3526688;40;20405;-62
2023/07/09 03:43:24;;;;;;;12.93;9.60;;;;;;;22.53;77.94;101469.44;3530680;40;20054;-61
2023/07/09 03:45:51;;;;;;;13.70;10.07;;;;;;;22.50;78.03;101465.13;3531283;40;20067;-61
2023/07/09 03:48:20;;;;;;;12.95;10.23;;;;;;;22.46;78.09;101467.34;3528191;40;20369;-62
2023/07/09 03:50:47;;;;;;;11.07;9.43;;;;;;;22.44;78.68;101472.09;3528498;40;20065;-62
2023/07/09 03:53:14;;;;;;;12.80;9.68;;;;;;;22.41;78.76;101466.94;3529493;40;20129;-62
2023/07/09 03:55:40;;;;;;;13.00;9.70;;;;;;;22.39;78.95;101459.88;3528677;40;20064;-62
2023/07/09 03:58:07;;;;;;;13.70;10.07;;;;;;;22.37;79.61;101471.00;3528539;40;20390;-61
2023/07/09 04:00:34;;;;;;;12.70;9.68;;;;;;;22.36;79.99;101469.31;3533242;40;20097;-62
2023/07/09 04:03:00;;;;;;;13.15;10.13;;;;;;;22.35;80.14;101467.56;3529354;40;20062;-63
2023/07/09 04:05:27;;;;;;;13.10;10.32;;;;;;;22.34;79.80;101468.59;3528852;40;20089;-61
2023/07/09 04:07:54;;;;;;;13.70;10.18;;;;;;;22.16;80.04;101432.97;3530691;40;20205;-61
2023/07/09 04:10:22;;;;;;;13.65;10.38;;;;;;;22.35;79.66;101459.34;3531988;40;20302;-63
2023/07/09 04:12:47;;;;;;;14.77;9.90;;;;;;;22.40;79.15;101469.84;3517647;40;20128;-62
2023/07/09 04:15:13;;;;;;;16.17;9.85;;;;;;;22.42;79.10;101468.69;3529049;40;20611;-62
2023/07/09 04:17:41;;;;;;;12.23;9.75;;;;;;;22.45;79.13;101468.38;3530749;40;20321;-63
2023/07/09 04:20:09;;;;;;;14.32;10.25;;;;;;;22.52;79.22;101464.97;3530633;40;20369;-63
2023/07/09 04:22:37;;;;;;;11.82;10.00;;;;;;;22.55;79.25;101471.03;3524409;40;20670;-63
2023/07/09 04:25:07;;;;;;;15.27;10.73;;;;;;;22.60;79.32;101470.53;3531131;40;20130;-62
2023/07/09 04:27:33;;;;;;;12.63;9.90;;;;;;;22.62;79.64;101471.25;3530065;40;20305;-62
2023/07/09 04:29:59;;;;;;;11.20;10.00;;;;;;;22.49;78.84;101441.50;3522014;40;20321;-61
2023/07/09 04:32:25;;;;;;;14.93;9.85;;;;;;;22.57;79.05;101452.53;3534724;40;20109;-62
2023/07/09 04:34:51;;;;;;;12.82;10.13;;;;;;;22.75;79.10;101471.69;3530270;40;20066;-62
2023/07/09 04:37:17;;;;;;;13.70;10.75;;;;;;;22.78;79.31;101471.38;3531464;40;20065;-62
2023/07/09 04:39:43;;;;;;;11.32;10.13;;;;;;;22.72;78.93;101461.06;3528847;40;20346;-62
2023/07/09 04:42:16;;;;;;;11.85;10.07;;;;;;;22.68;79.71;101451.44;3532995;40;20059;-62
2023/07/09 04:44:44;;;;;;;15.30;10.32;;;;;;;22.83;79.78;101474.50;3520803;40;20074;-62
2023/07/09 04:47:12;;;;;;;10.82;9.70;;;;;;;22.89;79.16;101462.88;3530509;40;20069;-62
2023/07/09 04:49:38;;;;;;;12.73;10.15;;;;;;;22.96;79.33;101467.75;3530807;40;20068;-63
2023/07/09 04:52:04;;;;;;;12.32;9.85;;;;;;;22.81;79.21;101432.69;3533556;40;20141;-62
2023/07/09 04:54:30;;;;;;;11.43;9.40;;;;;;;23.05;78.74;101470.41;3529426;40;20532;-62
2023/07/09 04:56:56;;;;;;;12.60;9.88;;;;;;;23.11;78.58;101471.66;3527973;40;20061;-62
2023/07/09 04:59:23;;;;;;;15.52;10.73;;;;;;;23.16;78.34;101475.63;3528082;40;20480;-62
2023/07/09 05:01:49;;;;;;;12.88;9.60;;;;;;;23.09;78.28;101447.16;3532764;40;20120;-61
2023/07/09 05:04:15;;;;;;;14.23;9.38;;;;;;;23.26;78.51;101470.03;3531690;40;20073;-61
2023/07/09 05:06:40;;;;;;;12.15;9.57;;;;;;;23.28;78.22;101461.63;3529526;40;20062;-62
2023/07/09 05:09:06;;;;;;;15.52;10.02;;;;;;;23.40;79.19;101471.31;3531651;40;20398;-61
2023/07/09 05:11:36;;;;;;;13.40;9.48;;;;;;;23.42;78.12;101457.44;3533901;40;20065;-61
2023/07/09 05:14:03;;;;;;;10.90;9.43;;;;;;;23.51;78.36;101461.97;3531863;40;20522;-61
2023/07/09 05:16:29;;;;;;;12.90;9.75;;;;;;;23.58;77.76;101471.25;3529782;40;20066;-61
2023/07/09 05:18:55;;;;;;;10.77;9.52;;;;;;;23.64;77.17;101473.34;3531464;40;20065;-63
2023/07/09 05:21:21;;;;;;;13.25;9.13;;;;;;;23.72;76.95;101470.63;3531996;40;20464;-62
2023/07/09 05:23:46;;;;;;;11.60;9.27;;;;;;;23.72;76.62;101456.91;3532185;40;20101;-63
2023/07/09 05:26:12;;;;;;;11.73;9.23;;;;;;;23.86;76.29;101474.66;3530308;40;20237;-62
2023/07/09 05:28:37;;;;;;;12.07;9.02;;;;;;;23.93;75.25;101469.38;3530532;40;20054;-62
2023/07/09 05:31:05;;;;;;;11.05;9.32;;;;;;;24.01;75.31;101470.25;3531046;40;20094;-63
2023/07/09 05:33:31;;;;;;;11.80;9.15;;;;;;;24.11;75.22;101469.25;3533164;40;20243;-64
2023/07/09 05:35:57;;;;;;;11.65;9.18;;;;;;;24.17;75.31;101468.56;3533521;40;20058;-64
2023/07/09 05:38:23;;;;;;;10.60;8.65;;;;;;;24.27;75.00;101464.66;3532214;40;20116;-63
2023/07/09 05:40:48;;;;;;;13.05;9.13;;;;;;;24.36;74.72;101467.38;3530699;40;20058;-63
2023/07/09 05:43:14;;;;;;;18.23;14.20;;;;;;;24.45;73.19;101463.66;3530958;40;20424;-63
2023/07/09 05:45:40;;;;;;;21.80;18.95;;;;;;;24.52;72.91;101465.56;3531323;40;20294;-64
2023/07/09 05:48:06;;;;;;;19.30;16.88;;;;;;;24.62;73.22;101465.41;3526234;40;20673;-63
2023/07/09 05:50:35;;;;;;;16.52;14.40;;;;;;;24.68;72.64;101469.38;3532937;40;20217;-63
2023/07/09 05:53:01;;;;;;;12.50;10.80;;;;;;;24.59;72.13;101443.75;3532425;40;20445;-63
2023/07/09 05:55:27;;;;;;;10.68;8.95;;;;;;;24.86;71.26;101463.66;3529521;40;20192;-63
2023/07/09 05:57:56;;;;;;;11.55;8.85;;;;;;;24.98;69.46;101476.03;3533257;40;20074;-63
2023/07/09 06:00:22;;;;;;;12.80;8.10;;;;;;;25.09;68.36;101481.19;3532656;40;20062;-63
2023/07/09 06:02:47;;;;;;;12.50;8.32;;;;;;;25.17;68.29;101477.59;3532979;40;20392;-63
2023/07/09 06:05:14;;;;;;;9.98;7.60;;;;;;;25.30;66.55;101482.56;3532252;40;20088;-63
2023/07/09 06:07:40;;;;;;;9.38;7.25;;;;;;;25.41;65.77;101484.94;3532824;40;20080;-63
2023/07/09 06:10:07;;;;;;;10.82;7.55;;;;;;;25.54;65.96;101493.50;3529964;40;20097;-64
2023/07/09 06:12:34;;;;;;;7.88;6.93;;;;;;;25.65;65.65;101487.59;3531308;40;20054;-63
2023/07/09 06:14:59;;;;;;;7.72;6.65;;;;;;;25.79;64.18;101485.16;3531985;40;20084;-64
2023/07/09 06:17:25;;;;;;;11.23;7.25;;;;;;;25.93;63.09;101489.94;3533634;40;20368;-63
2023/07/09 06:19:51;;;;;;;10.18;7.20;;;;;;;26.06;62.16;101494.88;3532380;40;20764;-63
2023/07/09 06:22:16;;;;;;;8.98;7.05;;;;;;;26.21;61.50;101493.06;3534669;40;20058;-63
2023/07/09 06:24:45;;;;;;;10.88;7.30;;;;;;;26.36;61.08;101487.66;3532803;40;20098;-63
2023/07/09 06:27:10;;;;;;;10.52;6.47;;;;;;;26.51;59.90;101491.34;3523523;40;20067;-63
2023/07/09 06:29:36;;;;;;;9.98;7.22;;;;;;;26.61;60.11;101478.19;3531413;40;20053;-64
2023/07/09 06:32:01;;;;;;;12.10;7.75;;;;;;;26.83;59.47;101486.59;3531735;40;20601;-63
2023/07/09 06:34:27;;;;;;;7.50;6.35;;;;;;;26.99;58.54;101486.47;3538046;40;20066;-64
2023/07/09 06:36:56;;;;;;;8.18;6.10;;;;;;;27.16;57.56;101478.06;3534803;40;20060;-63
2023/07/09 06:39:21;;;;;;;8.63;6.43;;;;;;;27.34;56.87;101478.56;3531088;40;20071;-64
2023/07/09 06:41:48;;;;;;;9.00;6.80;;;;;;;27.50;55.10;101483.91;3533497;40;20121;-64
2023/07/09 06:44:14;;;;;;;11.07;7.05;;;;;;;27.70;56.40;101491.63;3532157;40;20070;-63
2023/07/09 06:46:40;;;;;;;11.40;6.47;;;;;;;27.86;55.69;101488.69;3533286;40;20373;-64
2023/07/09 06:49:06;;;;;;;11.55;6.55;;;;;;;28.00;53.70;101490.56;3531500;40;20061;-63
2023/07/09 06:51:32;;;;;;;11.05;6.05;;;;;;;28.11;53.06;101485.59;3530193;40;20102;-63
2023/07/09 06:53:58;;;;;;;8.50;5.85;;;;;;;27.79;54.34;101418.66;3530235;40;20388;-64
2023/07/09 06:56:24;;;;;;;6.93;5.78;;;;;;;28.40;53.22;101496.59;3531939;40;20405;-64
2023/07/09 06:58:50;;;;;;;7.60;6.40;;;;;;;28.58;52.51;101496.16;3535482;40;20057;-63
2023/07/09 07:01:16;;;;;;;8.90;6.10;;;;;;;28.74;51.85;101502.47;3534469;40;20073;-64
2023/07/09 07:03:41;;;;;;;8.48;5.90;;;;;;;28.89;52.11;101494.94;3533408;40;20056;-63
2023/07/09 07:06:08;;;;;;;8.65;6.00;;;;;;;29.02;51.88;101505.28;3531791;40;20066;-64
2023/07/09 07:08:34;;;;;;;7.35;5.78;;;;;;;29.09;50.28;101492.38;3533899;40;20055;-63
2023/07/09 07:11:04;;;;;;;9.32;5.82;;;;;;;29.21;48.90;101496.31;3532290;40;20068;-64
2023/07/09 07:13:41;;;;;;;7.18;5.50;;;;;;;29.25;48.09;101505.06;3534469;40;20092;-64
2023/07/09 07:16:10;;;;;;;8.00;5.60;;;;;;;29.32;48.43;101505.97;3528648;40;20086;-64
2023/07/09 07:18:37;;;;;;;9.13;6.05;;;;;;;29.38;48.31;101514.31;3535192;40;20135;-64
2023/07/09 07:21:04;;;;;;;6.78;5.38;;;;;;;29.47;48.82;101508.63;3522357;40;20382;-64
2023/07/09 07:23:30;;;;;;;6.15;5.55;;;;;;;29.60;48.16;101505.94;3531351;40;20072;-64
2023/07/09 07:25:56;;;;;;;11.10;5.80;;;;;;;29.72;48.33;101512.66;3529398;40;20070;-63
2023/07/09 07:28:22;;;;;;;8.30;6.10;;;;;;;29.61;45.66;101489.13;3534954;40;20128;-63
2023/07/09 07:30:59;;;;;;;8.20;5.80;;;;;;;29.79;45.75;101507.16;3524112;40;20953;-63
2023/07/09 07:33:24;;;;;;;10.10;5.80;;;;;;;29.90;45.84;101514.00;3532569;40;20073;-63
2023/07/09 07:35:50;;;;;;;10.68;5.43;;;;;;;29.95;46.15;101514.25;3534268;40;20069;-63
2023/07/09 07:38:15;;;;;;;9.13;5.25;;;;;;;30.01;45.11;101517.06;3532468;40;20419;-63
2023/07/09 07:40:45;;;;;;;7.47;5.32;;;;;;;29.99;45.37;101496.16;3531527;40;20077;-63
2023/07/09 07:43:11;;;;;;;8.90;5.15;;;;;;;30.16;45.28;101514.16;3532278;40;20062;-63
2023/07/09 07:45:42;;;;;;;6.75;5.28;;;;;;;30.20;44.02;101503.53;3531331;40;20066;-63
2023/07/09 07:48:08;;;;;;;8.38;5.32;;;;;;;30.24;44.12;101513.97;3530229;40;20140;-63
2023/07/09 07:50:34;;;;;;;10.25;5.70;;;;;;;30.27;44.16;101510.78;3533853;40;20366;-63
2023/07/09 07:53:00;;;;;;;8.65;5.57;;;;;;;30.34;44.65;101509.97;3531002;40;21508;-63
2023/07/09 07:55:25;;;;;;;7.50;5.03;;;;;;;30.39;44.30;101507.44;3528530;40;20054;-64
2023/07/09 07:57:51;;;;;;;5.60;4.82;;;;;;;30.48;43.04;101517.25;3530857;40;20069;-64
2023/07/09 08:00:17;;;;;;;8.35;5.43;;;;;;;30.49;44.09;101507.88;3533938;40;20417;-63
2023/07/09 08:02:43;;;;;;;7.10;5.60;;;;;;;30.57;43.79;101513.22;3535250;40;20054;-63
2023/07/09 08:05:08;;;;;;;6.47;5.22;;;;;;;30.71;44.47;101506.63;3532419;40;20465;-63
2023/07/09 08:07:34;;;;;;;8.48;5.32;;;;;;;30.84;43.08;101504.97;3533304;40;20074;-64
2023/07/09 08:10:00;;;;;;;10.60;5.85;;;;;;;30.94;44.41;101499.84;3533615;40;20054;-64
2023/07/09 08:12:25;;;;;;;8.18;5.70;;;;;;;30.98;42.93;101498.34;3539208;40;20053;-63
2023/07/09 08:14:51;;;;;;;6.43;5.40;;;;;;;30.70;42.94;101449.41;3538419;40;21158;-63
2023/07/09 08:17:17;;;;;;;8.18;5.40;;;;;;;31.08;42.15;101492.34;3531837;40;20347;-63
2023/07/09 08:19:50;;;;;;;5.80;5.03;;;;;;;31.15;41.71;101502.41;3535072;40;20057;-63
2023/07/09 08:22:18;;;;;;;5.50;4.93;;;;;;;31.15;42.12;101474.63;3532824;40;20057;-63
2023/07/09 08:24:43;;;;;;;5.72;5.07;;;;;;;31.39;42.25;101498.13;3525882;40;20394;-63
2023/07/09 08:27:09;;;;;;;9.98;5.35;;;;;;;31.50;41.79;101499.41;3534999;40;20058;-63
2023/07/09 08:29:35;;;;;;;7.40;5.30;;;;;;;31.55;41.87;101491.25;3535081;40;20064;-63
2023/07/09 08:32:03;;;;;;;8.80;5.28;;;;;;;31.67;41.36;101494.22;3522454;40;20069;-63
2023/07/09 08:34:28;;;;;;;8.88;5.63;;;;;;;31.58;41.33;101468.56;3523218;40;20061;-63
2023/07/09 08:36:54;;;;;;;9.05;5.43;;;;;;;31.82;40.79;101491.19;3530649;40;20116;-63
2023/07/09 08:39:20;;;;;;;8.48;5.32;;;;;;;31.87;41.51;101477.44;3531052;40;20054;-63
2023/07/09 08:42:01;;;;;;;7.43;5.63;;;;;;;32.04;41.33;101489.00;3530545;40;20058;-64
2023/07/09 08:44:48;;;;;;;8.15;5.70;;;;;;;32.18;40.68;101492.53;3531630;40;20074;-63
2023/07/09 08:47:28;;;;;;;6.10;5.40;;;;;;;32.36;41.61;101498.22;3530418;40;20253;-63
2023/07/09 08:50:02;;;;;;;8.95;5.45;;;;;;;32.52;40.15;101497.72;3531711;40;20102;-63
2023/07/09 08:52:41;;;;;;;7.63;5.47;;;;;;;32.58;39.75;101496.84;3532126;40;20056;-63
2023/07/09 08:55:16;;;;;;;7.70;5.28;;;;;;;32.65;39.30;101510.72;3530997;40;20058;-63
2023/07/09 08:57:48;;;;;;;7.95;5.22;;;;;;;32.56;40.45;101503.69;3529697;40;20074;-63
2023/07/09 09:00:41;;;;;;;8.32;5.40;;;;;;;32.58;39.82;101502.41;3530091;40;20051;-64
2023/07/09 09:03:41;;;;;;;7.22;5.40;;;;;;;32.68;40.11;101495.50;3531873;40;20340;-64
2023/07/09 09:06:26;;;;;;;8.32;5.65;;;;;;;32.86;39.59;101491.91;3530761;40;20065;-64
2023/07/09 09:08:59;;;;;;;5.60;4.95;;;;;;;33.02;39.62;101489.47;3531859;40;20054;-64
2023/07/09 09:11:45;;;;;;;5.63;4.80;;;;;;;33.11;39.17;101490.00;3536276;40;20554;-64
2023/07/09 09:14:42;;;;;;;6.95;4.68;;;;;;;33.18;38.85;101479.66;3530970;40;20051;-64
2023/07/09 09:17:18;;;;;;;6.35;5.68;;;;;;;33.38;39.33;101485.03;3531130;40;20058;-64
2023/07/09 09:20:15;;;;;;;9.00;5.68;;;;;;;33.46;38.64;101487.53;3533956;40;20329;-64
2023/07/09 09:22:59;;;;;;;8.43;5.65;;;;;;;33.57;38.38;101485.94;3521406;40;20181;-64
2023/07/09 09:25:30;;;;;;;6.45;5.10;;;;;;;33.59;37.50;101469.84;3531350;40;20095;-63
2023/07/09 09:27:56;;;;;;;5.90;5.30;;;;;;;33.78;37.38;101478.19;3530265;40;20058;-64
2023/07/09 09:30:24;;;;;;;6.40;4.90;;;;;;;33.81;39.37;101445.13;3531026;40;20129;-64
2023/07/09 09:33:00;;;;;;;7.93;5.38;;;;;;;34.07;37.65;101471.00;3535808;40;20046;-64
2023/07/09 09:35:43;;;;;;;5.38;4.47;;;;;;;34.11;36.33;101461.06;3536719;40;20070;-64
2023/07/09 09:38:22;;;;;;;7.13;5.10;;;;;;;34.21;37.10;101461.34;3531006;40;20122;-64
2023/07/09 09:40:48;;;;;;;6.43;4.88;;;;;;;34.41;36.22;101456.31;3529755;40;20133;-64
2023/07/09 09:43:20;;;;;;;5.38;4.78;;;;;;;34.61;37.92;101452.41;3524817;40;20066;-64
2023/07/09 09:45:50;;;;;;;;;;;;;;;34.68;34.95;101457.88;3529318;40;20775;-66
2023/07/09 09:48:26;;;;;;;5.63;4.88;;;;;;;34.83;36.89;101450.72;3529709;40;19933;-64
2023/07/09 09:50:52;;;;;;;5.82;4.32;;;;;;;34.98;35.64;101455.81;3530311;40;20115;-64
2023/07/09 09:53:24;;;;;;;7.35;4.90;;;;;;;35.10;34.84;101450.28;3534002;40;20390;-64
2023/07/09 09:55:56;;;;;;;4.93;4.43;;;;;;;35.13;34.94;101441.41;3529974;40;20388;-64
2023/07/09 09:58:29;;;;;;;6.55;4.65;;;;;;;35.13;34.85;101435.81;3529204;40;20054;-64
2023/07/09 10:01:00;;;;;;;5.82;5.10;;;;;;;35.29;35.32;101437.88;3528920;40;20094;-64
2023/07/09 10:03:37;;;;;;;8.77;5.25;;;;;;;35.43;34.85;101430.09;3533579;40;20050;-64
2023/07/09 10:06:17;;;;;;;5.47;4.85;;;;;;;35.56;35.34;101445.78;3530937;40;20124;-64
2023/07/09 10:08:56;;;;;;;7.15;5.10;;;;;;;35.83;36.56;101448.84;3535057;40;20129;-64
2023/07/09 10:11:53;;;;;;;7.15;4.93;;;;;;;36.01;34.99;101453.44;3529178;40;20060;-64
2023/07/09 10:14:31;;;;;;;6.78;5.32;;;;;;;36.20;33.77;101449.34;3529689;40;20092;-65
2023/07/09 10:17:23;;;;;;;8.25;4.90;;;;;;;36.25;33.87;101443.00;3530418;40;20406;-64
2023/07/09 10:20:32;;;;;;;7.38;4.53;;;;;;;36.30;33.06;101456.25;3527916;40;20050;-65
2023/07/09 10:23:26;;;;;;;5.78;4.32;;;;;;;36.44;31.56;101463.22;3508948;40;20423;-65
2023/07/09 10:26:25;;;;;;;7.60;4.45;;;;;;;36.60;32.33;101467.19;3527984;40;20098;-64
2023/07/09 10:29:22;;;;;;;6.57;4.18;;;;;;;36.66;35.69;101467.00;3532141;40;20479;-65
2023/07/09 10:32:31;;;;;;;4.85;4.32;;;;;;;36.83;32.08;101480.22;3532522;40;20058;-64
2023/07/09 10:35:18;;;;;;;6.53;4.47;;;;;;;36.87;31.47;101476.63;3523366;40;20406;-64
2023/07/09 10:38:04;;;;;;;8.38;4.57;;;;;;;36.99;30.92;101476.59;3533149;40;20098;-64
2023/07/09 10:40:53;;;;;;;4.85;4.40;;;;;;;36.98;31.48;101474.00;3529129;40;20055;-64
2023/07/09 10:43:30;;;;;;;7.28;4.32;;;;;;;37.08;32.04;101469.44;3531553;40;20058;-64
2023/07/09 10:46:18;;;;;;;6.28;4.70;;;;;;;37.28;31.88;101473.66;3524950;40;20121;-64
2023/07/09 10:48:50;;;;;;;6.05;4.57;;;;;;;37.53;32.58;101464.81;3520853;40;20703;-64
2023/07/09 10:51:41;;;;;;;6.70;4.20;;;;;;;37.59;31.10;101470.22;3532935;40;20406;-63
2023/07/09 10:54:34;;;;;;;5.70;3.97;;;;;;;37.51;31.49;101456.63;3520067;40;20353;-63
2023/07/09 10:57:47;;;;;;;6.07;4.30;;;;;;;37.35;29.74;101451.88;3531022;40;20190;-64
2023/07/09 11:00:20;;;;;;;;;;;;;;;37.23;31.82;101459.56;3531388;40;20050;-64
2023/07/09 11:03:03;;;;;;;6.68;4.68;;;;;;;37.24;31.66;101438.84;3530881;40;19963;-64
2023/07/09 11:05:31;;;;;;;11.95;4.60;;;;;;;37.38;30.98;101451.38;3527371;40;20368;-63
2023/07/09 11:08:23;;;;;;;5.70;4.88;;;;;;;37.28;32.35;101445.63;3530971;40;20152;-64
2023/07/09 11:10:58;;;;;;;6.43;4.78;;;;;;;37.26;32.02;101436.59;3532369;40;20125;-63
2023/07/09 11:13:32;;;;;;;6.60;4.28;;;;;;;37.23;30.76;101459.56;3529224;40;20055;-64
2023/07/09 11:16:00;;;;;;;6.88;3.85;;;;;;;37.17;31.03;101465.09;3529221;40;20078;-64
2023/07/09 11:18:35;;;;;;;5.82;4.43;;;;;;;37.12;31.71;101472.59;3529156;40;20062;-63
2023/07/09 11:21:17;;;;;;;5.80;4.30;;;;;;;37.09;31.57;101471.13;3528744;40;20128;-63
2023/07/09 11:23:59;;;;;;;5.40;4.20;;;;;;;36.87;31.98;101444.97;3528744;40;20056;-64
2023/07/09 11:26:33;;;;;;;5.28;4.22;;;;;;;37.02;31.71;101481.69;3527429;40;20054;-64
2023/07/09 11:29:05;;;;;;;5.10;3.90;;;;;;;36.99;31.99;101476.59;3528437;40;20054;-64
2023/07/09 11:31:41;;;;;;;4.63;3.75;;;;;;;36.93;30.63;101471.97;3527722;40;20110;-64
2023/07/09 11:34:06;;;;;;;5.90;4.07;;;;;;;36.85;31.88;101473.22;3529570;40;20085;-64
2023/07/09 11:36:45;;;;;;;6.80;4.10;;;;;;;36.63;33.40;101463.88;3530370;40;20362;-64
2023/07/09 11:39:35;;;;;;;4.93;3.90;;;;;;;36.45;31.85;101467.75;3531083;40;20093;-64